createdAt,value
2023-03-31T00:02:14.341Z,2.90
2023-03-31T00:04:52.383Z,4.18
2023-03-31T00:07:22.132Z,3.50
2023-03-31T00:09:49.023Z,3.88
2023-03-31T00:12:16.580Z,4.65
2023-03-31T00:14:44.164Z,3.20
2023-03-31T00:17:11.675Z,3.75
2023-03-31T00:19:40.152Z,3.45
2023-03-31T00:22:07.597Z,3.38
2023-03-31T00:24:35.583Z,4.47
2023-03-31T00:27:04.483Z,2.92
2023-03-31T00:29:31.443Z,4.53
2023-03-31T00:31:59.943Z,3.97
2023-03-31T00:34:27.187Z,4.38
2023-03-31T00:36:56.391Z,4.07
2023-03-31T00:39:24.673Z,4.18
2023-03-31T00:41:51.450Z,4.53
2023-03-31T00:44:24.621Z,3.85
2023-03-31T00:47:12.386Z,3.22
2023-03-31T00:49:50.572Z,3.90
2023-03-31T00:52:43.763Z,3.53
2023-03-31T00:55:14.474Z,4.35
2023-03-31T00:57:42.969Z,4.00
2023-03-31T01:00:15.561Z,4.18
2023-03-31T01:02:51.504Z,2.90
2023-03-31T01:05:22.273Z,6.50
2023-03-31T01:07:50.947Z,5.53
2023-03-31T01:10:18.279Z,3.25
2023-03-31T01:12:49.873Z,4.07
2023-03-31T01:15:16.740Z,5.78
2023-03-31T01:17:47.435Z,3.25
2023-03-31T01:20:33.135Z,4.47
2023-03-31T01:23:37.695Z,4.13
2023-03-31T01:26:20.726Z,3.40
2023-03-31T01:28:52.242Z,3.65
2023-03-31T01:31:46.403Z,4.22
2023-03-31T01:34:31.036Z,3.35
2023-03-31T01:37:24.585Z,5.18
2023-03-31T01:40:22.289Z,5.80
2023-03-31T01:42:59.437Z,5.07
2023-03-31T01:45:37.829Z,4.72
2023-03-31T01:48:14.774Z,4.68
2023-03-31T01:53:48.554Z,6.28
2023-03-31T01:56:28.646Z,5.28
2023-03-31T01:59:04.983Z,5.60
2023-03-31T02:01:49.636Z,5.88
2023-03-31T02:04:20.847Z,4.43
2023-03-31T02:06:56.174Z,5.85
2023-03-31T02:09:28.097Z,5.50
2023-03-31T02:11:56.993Z,4.68
2023-03-31T02:14:28.025Z,4.07
2023-03-31T02:16:58.443Z,4.55
2023-03-31T02:19:29.575Z,4.45
2023-03-31T02:21:58.936Z,4.40
2023-03-31T02:24:28.009Z,4.03
2023-03-31T02:27:06.963Z,5.28
2023-03-31T02:29:34.284Z,3.90
2023-03-31T02:32:22.969Z,5.85
2023-03-31T02:34:49.875Z,4.65
2023-03-31T02:37:16.881Z,4.18
2023-03-31T02:39:47.910Z,3.80
2023-03-31T02:42:15.206Z,4.00
2023-03-31T02:44:42.149Z,4.43
2023-03-31T02:47:12.845Z,4.20
2023-03-31T02:49:53.613Z,5.15
2023-03-31T02:52:32.615Z,5.38
2023-03-31T02:55:30.574Z,4.30
2023-03-31T02:58:28.757Z,4.25
2023-03-31T03:01:06.538Z,8.45
2023-03-31T03:04:06.531Z,4.63
2023-03-31T03:06:44.493Z,5.78
2023-03-31T03:09:36.029Z,18.65
2023-03-31T03:12:28.472Z,4.60
2023-03-31T03:15:06.475Z,4.65
2023-03-31T03:17:40.749Z,4.13
2023-03-31T03:20:09.568Z,5.50
2023-03-31T03:22:37.987Z,5.45
2023-03-31T03:25:06.404Z,4.97
2023-03-31T03:27:33.075Z,4.90
2023-03-31T03:29:59.735Z,5.10
2023-03-31T03:32:26.506Z,3.88
2023-03-31T03:34:53.206Z,5.43
2023-03-31T03:37:19.898Z,4.00
2023-03-31T03:39:46.554Z,4.95
2023-03-31T03:42:13.257Z,4.30
2023-03-31T03:44:39.969Z,6.10
2023-03-31T03:47:06.684Z,3.92
2023-03-31T03:49:33.359Z,13.10
2023-03-31T03:52:00.211Z,10.35
2023-03-31T03:54:26.870Z,8.93
2023-03-31T03:56:53.538Z,9.98
2023-03-31T03:59:20.255Z,7.05
2023-03-31T04:01:46.956Z,7.38
2023-03-31T04:04:13.978Z,7.10
2023-03-31T04:06:40.653Z,4.57
2023-03-31T04:09:07.602Z,5.88
2023-03-31T04:11:34.924Z,7.05
2023-03-31T04:14:01.659Z,6.05
2023-03-31T04:16:28.478Z,5.10
2023-03-31T04:18:59.688Z,6.32
2023-03-31T04:21:26.400Z,4.38
2023-03-31T04:24:04.744Z,4.47
2023-03-31T04:26:43.168Z,5.13
2023-03-31T04:29:16.353Z,4.72
2023-03-31T04:31:43.614Z,3.55
2023-03-31T04:34:14.768Z,5.25
2023-03-31T04:36:52.205Z,3.95
2023-03-31T04:39:26.843Z,5.28
2023-03-31T04:41:54.197Z,4.80
2023-03-31T04:44:20.843Z,4.30
2023-03-31T04:46:47.669Z,4.82
2023-03-31T04:49:15.025Z,5.07
2023-03-31T04:51:41.676Z,4.95
2023-03-31T04:54:08.495Z,4.68
2023-03-31T04:56:35.257Z,3.35
2023-03-31T04:59:03.863Z,4.25
2023-03-31T05:01:36.157Z,4.05
2023-03-31T05:04:04.365Z,5.13
2023-03-31T05:06:31.121Z,4.18
2023-03-31T05:08:57.805Z,4.28
2023-03-31T05:11:24.490Z,4.00
2023-03-31T05:13:51.175Z,3.78
2023-03-31T05:16:18.357Z,4.82
2023-03-31T05:18:46.246Z,5.18
2023-03-31T05:21:19.246Z,4.40
2023-03-31T05:23:46.492Z,4.40
2023-03-31T05:26:14.093Z,4.57
2023-03-31T05:28:41.415Z,4.35
2023-03-31T05:31:13.147Z,4.53
2023-03-31T05:33:41.858Z,6.07
2023-03-31T05:36:11.190Z,3.42
2023-03-31T05:38:38.824Z,4.63
2023-03-31T05:41:07.003Z,4.00
2023-03-31T05:43:33.721Z,3.50
2023-03-31T05:46:00.474Z,3.92
2023-03-31T05:48:27.295Z,4.25
2023-03-31T05:50:58.591Z,5.00
2023-03-31T05:53:25.967Z,4.15
2023-03-31T05:56:00.181Z,4.38
2023-03-31T05:58:26.902Z,5.35
2023-03-31T06:01:11.699Z,4.65
2023-03-31T06:03:41.578Z,4.78
2023-03-31T06:06:09.461Z,4.80
2023-03-31T06:08:37.801Z,4.53
2023-03-31T06:11:10.308Z,4.45
2023-03-31T06:13:38.040Z,7.00
2023-03-31T06:16:05.680Z,5.20
2023-03-31T06:18:34.990Z,5.93
2023-03-31T06:21:02.323Z,5.57
2023-03-31T06:23:29.342Z,6.13
2023-03-31T06:26:03.524Z,5.82
2023-03-31T06:28:31.169Z,6.95
2023-03-31T06:31:08.770Z,7.18
2023-03-31T06:33:36.180Z,5.95
2023-03-31T06:36:05.556Z,6.38
2023-03-31T06:38:38.284Z,7.75
2023-03-31T06:41:06.698Z,6.10
2023-03-31T06:43:33.911Z,11.75
2023-03-31T06:46:00.892Z,13.00
2023-03-31T06:48:27.842Z,12.10
2023-03-31T06:50:55.271Z,16.38
2023-03-31T06:53:22.304Z,11.65
2023-03-31T06:55:48.989Z,11.60
2023-03-31T06:58:15.986Z,13.07
2023-03-31T07:00:42.801Z,10.48
2023-03-31T07:03:09.521Z,8.68
2023-03-31T07:05:36.316Z,10.13
2023-03-31T07:08:03.166Z,12.77
2023-03-31T07:10:32.065Z,6.38
2023-03-31T07:12:58.926Z,9.05
2023-03-31T07:15:28.155Z,7.30
2023-03-31T07:18:02.051Z,8.05
2023-03-31T07:20:30.402Z,5.68
2023-03-31T07:22:57.228Z,4.72
2023-03-31T07:25:23.982Z,5.07
2023-03-31T07:27:50.769Z,3.53
2023-03-31T07:30:20.617Z,3.28
2023-03-31T07:32:48.742Z,9.13
2023-03-31T07:35:16.458Z,6.15
2023-03-31T07:37:46.692Z,2.60
2023-03-31T07:40:23.341Z,5.35
2023-03-31T07:42:51.985Z,10.05
2023-03-31T07:45:21.054Z,3.15
2023-03-31T07:47:48.032Z,3.38
2023-03-31T07:50:16.082Z,3.65
2023-03-31T07:52:46.197Z,4.95
2023-03-31T07:55:14.130Z,2.83
2023-03-31T07:57:41.435Z,9.05
2023-03-31T08:00:12.170Z,16.67
2023-03-31T08:02:41.430Z,11.57
2023-03-31T08:05:08.798Z,14.10
2023-03-31T08:07:36.844Z,5.20
2023-03-31T08:10:06.190Z,6.55
2023-03-31T08:12:32.844Z,6.13
2023-03-31T08:14:59.534Z,6.68
2023-03-31T08:17:26.279Z,6.20
2023-03-31T08:19:53.537Z,6.68
2023-03-31T08:22:20.241Z,5.45
2023-03-31T08:24:47.259Z,7.43
2023-03-31T08:27:13.953Z,6.57
2023-03-31T08:29:40.607Z,7.15
2023-03-31T08:32:07.594Z,6.85
2023-03-31T08:34:34.408Z,6.95
2023-03-31T08:37:01.041Z,4.60
2023-03-31T08:39:27.669Z,5.22
2023-03-31T08:42:36.151Z,6.25
2023-03-31T08:45:21.259Z,4.63
2023-03-31T08:48:04.642Z,4.55
2023-03-31T08:50:46.556Z,4.35
2023-03-31T08:53:37.524Z,5.35
2023-03-31T08:56:08.124Z,4.85
2023-03-31T08:58:47.506Z,4.70
2023-03-31T09:01:24.965Z,5.57
2023-03-31T09:04:22.939Z,5.97
2023-03-31T09:07:34.820Z,6.85
2023-03-31T09:10:13.121Z,6.38
2023-03-31T09:13:07.481Z,5.72
2023-03-31T09:16:19.613Z,7.38
2023-03-31T09:18:49.191Z,7.00
2023-03-31T09:21:31.157Z,6.70
2023-03-31T09:24:08.052Z,7.53
2023-03-31T09:26:49.089Z,6.60
2023-03-31T09:29:36.305Z,8.63
2023-03-31T09:32:17.806Z,5.45
2023-03-31T09:34:46.394Z,5.57
2023-03-31T09:37:13.609Z,6.57
2023-03-31T09:39:40.977Z,6.90
2023-03-31T09:42:10.431Z,8.05
2023-03-31T09:44:40.844Z,4.22
2023-03-31T09:47:15.755Z,5.18
2023-03-31T09:49:53.649Z,5.18
2023-03-31T09:52:30.969Z,5.82
2023-03-31T09:55:32.029Z,5.10
2023-03-31T10:00:42.266Z,6.90
2023-03-31T10:03:13.628Z,4.95
2023-03-31T10:05:52.304Z,4.93
2023-03-31T10:08:38.029Z,4.50
2023-03-31T10:11:04.838Z,4.75
2023-03-31T10:14:00.509Z,3.75
2023-03-31T10:16:31.976Z,4.22
2023-03-31T10:19:26.244Z,4.72
2023-03-31T10:21:59.263Z,4.57
2023-03-31T10:24:27.726Z,3.47
2023-03-31T10:26:57.207Z,3.58
2023-03-31T10:29:30.997Z,3.83
2023-03-31T10:32:11.959Z,4.95
2023-03-31T10:34:42.656Z,3.60
2023-03-31T10:37:18.944Z,3.53
2023-03-31T10:39:47.761Z,3.63
2023-03-31T10:42:24.447Z,3.83
2023-03-31T10:45:10.668Z,5.07
2023-03-31T10:47:39.984Z,5.05
2023-03-31T10:50:14.902Z,4.55
2023-03-31T10:52:47.744Z,4.00
2023-03-31T10:55:25.720Z,3.08
2023-03-31T10:58:12.595Z,3.55
2023-03-31T11:00:51.200Z,4.30
2023-03-31T11:03:27.276Z,3.67
2023-03-31T11:08:52.069Z,3.05
2023-03-31T11:11:46.687Z,3.90
2023-03-31T11:14:40.101Z,4.00
2023-03-31T11:17:35.598Z,3.50
2023-03-31T11:20:12.747Z,3.15
2023-03-31T11:22:57.781Z,3.28
2023-03-31T11:25:35.345Z,3.25
2023-03-31T11:28:26.214Z,4.30
2023-03-31T11:31:03.573Z,3.28
2023-03-31T11:33:38.624Z,4.05
2023-03-31T11:36:39.316Z,3.97
2023-03-31T11:39:38.943Z,2.97
2023-03-31T11:42:20.218Z,4.43
2023-03-31T11:44:53.057Z,3.20
2023-03-31T11:47:24.961Z,2.80
2023-03-31T11:49:55.354Z,3.42
2023-03-31T11:52:34.752Z,3.10
2023-03-31T11:55:15.284Z,3.70
2023-03-31T11:57:56.732Z,3.08
2023-03-31T12:00:28.455Z,3.80
2023-03-31T12:03:15.894Z,2.40
2023-03-31T12:05:58.389Z,4.30
2023-03-31T12:08:39.898Z,3.03
2023-03-31T12:11:13.209Z,5.10
2023-03-31T12:14:10.620Z,2.38
2023-03-31T12:16:41.438Z,1.98
2023-03-31T12:19:14.489Z,2.33
2023-03-31T12:22:00.798Z,2.47
2023-03-31T12:24:36.205Z,2.45
2023-03-31T12:27:14.362Z,2.67
2023-03-31T12:30:03.064Z,6.53
2023-03-31T12:32:36.403Z,3.88
2023-03-31T12:35:27.426Z,6.70
2023-03-31T12:38:22.917Z,4.57
2023-03-31T12:41:01.511Z,6.10
2023-03-31T12:44:05.891Z,8.10
2023-03-31T12:46:59.954Z,6.85
2023-03-31T12:49:35.838Z,4.50
2023-03-31T12:52:08.841Z,4.50
2023-03-31T12:55:04.477Z,3.63
2023-03-31T12:57:31.371Z,2.60
2023-03-31T13:00:22.534Z,2.55
2023-03-31T13:02:50.927Z,2.15
2023-03-31T13:05:36.815Z,6.47
2023-03-31T13:08:08.643Z,2.58
2023-03-31T13:10:58.591Z,1.80
2023-03-31T13:13:26.462Z,2.75
2023-03-31T13:15:56.613Z,3.25
2023-03-31T13:18:23.951Z,2.97
2023-03-31T13:21:05.435Z,2.53
2023-03-31T13:23:35.797Z,1.75
2023-03-31T13:26:03.535Z,2.22
2023-03-31T13:28:42.236Z,3.08
2023-03-31T13:31:12.179Z,2.40
2023-03-31T13:33:59.522Z,3.83
2023-03-31T13:36:47.468Z,1.20
2023-03-31T13:39:55.269Z,3.28
2023-03-31T13:42:41.306Z,3.33
2023-03-31T13:45:49.043Z,2.60
2023-03-31T13:48:53.053Z,1.50
2023-03-31T13:51:22.727Z,1.95
2023-03-31T13:54:16.871Z,3.53
2023-03-31T13:57:27.097Z,3.47
2023-03-31T14:00:31.731Z,2.00
2023-03-31T14:03:17.594Z,5.40
2023-03-31T14:06:06.721Z,1.85
2023-03-31T14:08:45.714Z,3.10
2023-03-31T14:11:17.334Z,2.28
2023-03-31T14:13:44.000Z,2.05
2023-03-31T14:16:13.065Z,2.45
2023-03-31T14:18:47.712Z,1.88
2023-03-31T14:21:17.896Z,1.52
2023-03-31T14:24:02.541Z,2.30
2023-03-31T14:26:51.628Z,2.47
2023-03-31T14:29:36.158Z,2.38
2023-03-31T14:32:21.121Z,2.90
2023-03-31T14:35:13.812Z,1.63
2023-03-31T14:37:40.724Z,2.13
2023-03-31T14:40:15.871Z,1.58
2023-03-31T14:42:49.477Z,1.48
2023-03-31T14:45:21.934Z,1.88
2023-03-31T14:48:02.733Z,2.45
2023-03-31T14:50:36.332Z,2.33
2023-03-31T14:53:04.678Z,1.23
2023-03-31T14:55:54.324Z,2.08
2023-03-31T14:58:34.924Z,2.08
2023-03-31T15:01:04.426Z,2.88
2023-03-31T15:03:33.281Z,1.45
2023-03-31T15:06:02.347Z,1.80
2023-03-31T15:08:30.924Z,2.05
2023-03-31T15:11:11.794Z,1.02
2023-03-31T15:13:56.756Z,2.40
2023-03-31T15:16:30.755Z,1.40
2023-03-31T15:19:00.037Z,1.88
2023-03-31T15:21:31.125Z,2.28
2023-03-31T15:23:58.793Z,1.48
2023-03-31T15:26:40.524Z,1.63
2023-03-31T15:29:25.276Z,1.98
2023-03-31T15:31:56.125Z,1.35
2023-03-31T15:34:29.188Z,1.10
2023-03-31T15:36:57.361Z,1.33
2023-03-31T15:39:25.761Z,1.75
2023-03-31T15:41:53.238Z,2.53
2023-03-31T15:44:39.391Z,1.17
2023-03-31T15:47:21.259Z,1.58
2023-03-31T15:49:51.170Z,1.30
2023-03-31T15:52:36.211Z,1.65
2023-03-31T15:55:22.800Z,2.38
2023-03-31T15:57:54.574Z,1.70
2023-03-31T16:00:40.058Z,2.22
2023-03-31T16:03:38.518Z,1.75
2023-03-31T16:06:28.533Z,3.10
2023-03-31T16:09:21.365Z,1.25
2023-03-31T16:11:52.310Z,1.42
2023-03-31T16:14:23.892Z,2.00
2023-03-31T16:16:56.748Z,2.50
2023-03-31T16:19:27.138Z,2.47
2023-03-31T16:21:59.330Z,2.38
2023-03-31T16:24:33.498Z,2.13
2023-03-31T16:27:06.008Z,1.75
2023-03-31T16:29:34.776Z,1.75
2023-03-31T16:32:27.561Z,3.25
2023-03-31T16:35:00.227Z,0.93
2023-03-31T16:37:27.292Z,4.28
2023-03-31T16:39:54.315Z,6.07
2023-03-31T16:42:21.639Z,1.10
2023-03-31T16:45:00.026Z,2.05
2023-03-31T16:47:35.877Z,2.42
2023-03-31T16:50:07.098Z,3.17
2023-03-31T16:52:33.924Z,1.45
2023-03-31T16:55:01.353Z,2.45
2023-03-31T16:57:28.222Z,1.10
2023-03-31T16:59:57.356Z,2.72
2023-03-31T17:02:25.398Z,2.05
2023-03-31T17:04:54.190Z,4.03
2023-03-31T17:07:23.302Z,2.22
2023-03-31T17:09:49.931Z,0.88
2023-03-31T17:12:16.602Z,3.42
2023-03-31T17:14:43.317Z,2.00
2023-03-31T17:17:09.956Z,3.30
2023-03-31T17:19:36.906Z,2.78
2023-03-31T17:22:03.913Z,2.55
2023-03-31T17:24:30.714Z,3.78
2023-03-31T17:26:57.731Z,2.30
2023-03-31T17:29:24.753Z,2.15
2023-03-31T17:31:51.448Z,1.77
2023-03-31T17:34:18.273Z,2.63
2023-03-31T17:36:45.049Z,1.50
2023-03-31T17:39:12.044Z,1.50
2023-03-31T17:41:38.727Z,1.98
2023-03-31T17:44:07.708Z,2.10
2023-03-31T17:46:35.675Z,0.80
2023-03-31T17:49:02.356Z,0.98
2023-03-31T17:51:29.835Z,1.65
2023-03-31T17:53:57.398Z,2.28
2023-03-31T17:56:24.529Z,2.22
2023-03-31T17:58:52.076Z,1.98
2023-03-31T18:01:19.192Z,2.00
2023-03-31T18:03:46.352Z,1.55
2023-03-31T18:06:14.614Z,1.38
2023-03-31T18:08:42.639Z,2.45
2023-03-31T18:11:10.623Z,0.98
2023-03-31T18:13:37.847Z,1.25
2023-03-31T18:16:05.732Z,1.27
2023-03-31T18:18:32.685Z,0.93
2023-03-31T18:21:03.989Z,1.00
2023-03-31T18:23:30.630Z,0.88
2023-03-31T18:25:57.473Z,0.80
2023-03-31T18:28:24.162Z,1.17
2023-03-31T18:30:51.114Z,2.38
2023-03-31T18:33:17.860Z,0.57
2023-03-31T18:35:44.843Z,0.80
2023-03-31T18:38:12.035Z,1.02
2023-03-31T18:40:39.246Z,0.82
2023-03-31T18:43:06.082Z,0.60
2023-03-31T18:45:33.023Z,1.55
2023-03-31T18:47:59.858Z,1.23
2023-03-31T18:50:26.657Z,0.80
2023-03-31T18:52:54.490Z,1.15
2023-03-31T18:55:22.109Z,0.40
2023-03-31T18:57:49.113Z,0.52
2023-03-31T19:00:17.061Z,0.70
2023-03-31T19:02:43.946Z,0.60
2023-03-31T19:05:10.684Z,0.68
2023-03-31T19:07:37.423Z,0.52
2023-03-31T19:10:04.478Z,0.60
2023-03-31T19:12:31.113Z,1.05
2023-03-31T19:14:58.191Z,1.25
2023-03-31T19:17:25.159Z,1.08
2023-03-31T19:19:51.872Z,1.20
2023-03-31T19:22:18.561Z,1.13
2023-03-31T19:24:45.308Z,1.08
2023-03-31T19:27:12.571Z,1.65
2023-03-31T19:29:39.302Z,0.82
2023-03-31T19:32:06.250Z,0.68
2023-03-31T19:34:33.729Z,1.02
2023-03-31T19:37:01.947Z,1.33
2023-03-31T19:39:28.747Z,1.95
2023-03-31T19:41:55.645Z,1.02
2023-03-31T19:44:22.439Z,1.33
2023-03-31T19:46:49.254Z,1.38
2023-03-31T19:49:16.383Z,0.90
2023-03-31T19:51:43.077Z,1.00
2023-03-31T19:54:10.908Z,1.05
2023-03-31T19:56:38.182Z,1.13
2023-03-31T19:59:05.606Z,1.27
2023-03-31T20:01:32.982Z,1.05
2023-03-31T20:04:00.052Z,0.55
2023-03-31T20:06:29.320Z,1.00
2023-03-31T20:08:58.627Z,1.27
2023-03-31T20:11:26.411Z,1.08
2023-03-31T20:13:53.832Z,0.50
2023-03-31T20:16:22.734Z,1.75
2023-03-31T20:18:55.102Z,0.75
2023-03-31T20:21:23.988Z,3.10
2023-03-31T20:23:51.023Z,2.40
2023-03-31T20:26:20.525Z,4.20
2023-03-31T20:28:47.950Z,1.23
2023-03-31T20:31:17.857Z,2.38
2023-03-31T20:33:46.069Z,1.55
2023-03-31T20:36:18.194Z,0.98
2023-03-31T20:38:47.278Z,1.77
2023-03-31T20:41:14.695Z,1.67
2023-03-31T20:43:41.519Z,1.33
2023-03-31T20:46:09.491Z,1.15
2023-03-31T20:48:57.209Z,1.15
2023-03-31T20:51:30.647Z,1.35
2023-03-31T20:53:58.945Z,1.83
2023-03-31T20:56:34.950Z,3.78
2023-03-31T20:59:01.952Z,1.17
2023-03-31T21:01:32.295Z,1.00
2023-03-31T21:04:01.257Z,2.20
2023-03-31T21:06:32.632Z,1.30
2023-03-31T21:08:59.558Z,1.50
2023-03-31T21:11:26.471Z,1.00
2023-03-31T21:13:53.417Z,1.63
2023-03-31T21:16:21.200Z,1.00
2023-03-31T21:18:48.381Z,0.95
2023-03-31T21:21:18.718Z,1.27
2023-03-31T21:23:46.646Z,1.70
2023-03-31T21:26:15.587Z,1.80
2023-03-31T21:28:43.150Z,2.05
2023-03-31T21:31:15.671Z,1.38
2023-03-31T21:33:44.412Z,1.20
2023-03-31T21:36:13.379Z,1.10
2023-03-31T21:38:40.496Z,2.25
2023-03-31T21:41:08.171Z,0.80
2023-03-31T21:43:35.299Z,1.88
2023-03-31T21:46:02.180Z,1.27
2023-03-31T21:48:29.772Z,1.27
2023-03-31T21:51:00.271Z,1.08
2023-03-31T21:53:28.684Z,1.15
2023-03-31T21:55:57.230Z,1.00
2023-03-31T21:58:28.629Z,1.98
2023-03-31T22:01:01.126Z,1.70
2023-03-31T22:03:29.002Z,1.27
2023-03-31T22:05:56.954Z,2.42
2023-03-31T22:08:24.840Z,1.30
2023-03-31T22:10:53.051Z,1.60
2023-03-31T22:13:21.307Z,1.25
2023-03-31T22:15:48.215Z,1.52
2023-03-31T22:18:16.922Z,2.97
2023-03-31T22:20:44.725Z,1.75
2023-03-31T22:23:11.944Z,0.88
2023-03-31T22:25:38.624Z,1.73
2023-03-31T22:28:07.112Z,2.20
2023-03-31T22:30:34.297Z,1.70
2023-03-31T22:33:01.165Z,2.17
2023-03-31T22:35:28.344Z,1.60
2023-03-31T22:37:55.087Z,1.05
2023-03-31T22:40:22.183Z,1.80
2023-03-31T22:42:48.852Z,2.83
2023-03-31T22:45:15.727Z,1.48
2023-03-31T22:47:42.577Z,1.55
2023-03-31T22:50:10.433Z,1.95
2023-03-31T22:52:37.353Z,1.15
2023-03-31T22:55:04.599Z,1.80
2023-03-31T22:57:32.069Z,1.25
2023-03-31T22:59:58.903Z,1.73
2023-03-31T23:02:25.831Z,0.98
2023-03-31T23:04:52.607Z,6.43
2023-03-31T23:07:21.730Z,2.25
2023-03-31T23:09:48.771Z,6.65
2023-03-31T23:12:15.511Z,6.25
2023-03-31T23:14:42.193Z,6.53
2023-03-31T23:17:08.894Z,5.70
2023-03-31T23:19:35.540Z,5.25
2023-03-31T23:22:02.552Z,3.10
2023-03-31T23:24:29.954Z,3.08
2023-03-31T23:26:56.736Z,2.13
2023-03-31T23:29:23.454Z,3.17
2023-03-31T23:31:50.228Z,1.48
2023-03-31T23:34:17.336Z,2.90
2023-03-31T23:36:44.033Z,4.60
2023-03-31T23:39:10.794Z,1.10
2023-03-31T23:41:37.522Z,2.10
2023-03-31T23:44:04.640Z,1.98
2023-03-31T23:46:31.868Z,2.00
2023-03-31T23:48:59.322Z,1.65
2023-03-31T23:51:26.103Z,1.88
2023-03-31T23:53:52.925Z,2.42
2023-03-31T23:56:19.825Z,1.38
2023-03-31T23:58:47.135Z,2.80
